sensor_id;sensor_type;location;lat;lon;timestamp;P1;durP1;ratioP1;P2;durP2;ratioP2
17814;SDS011;9031;50.974;11.330;2023-04-25T00:01:14;7.37;;;4.63;;
17814;SDS011;9031;50.974;11.330;2023-04-25T00:03:40;5.67;;;4.87;;
17814;SDS011;9031;50.974;11.330;2023-04-25T00:06:05;6.17;;;4.57;;
17814;SDS011;9031;50.974;11.330;2023-04-25T00:08:31;4.87;;;4.43;;
17814;SDS011;9031;50.974;11.330;2023-04-25T00:10:57;4.60;;;4.20;;
17814;SDS011;9031;50.974;11.330;2023-04-25T00:13:23;6.03;;;4.80;;
17814;SDS011;9031;50.974;11.330;2023-04-25T00:15:50;7.53;;;4.93;;
17814;SDS011;9031;50.974;11.330;2023-04-25T00:18:16;5.23;;;4.67;;
17814;SDS011;9031;50.974;11.330;2023-04-25T00:20:42;7.77;;;4.20;;
17814;SDS011;9031;50.974;11.330;2023-04-25T00:23:11;5.53;;;4.57;;
17814;SDS011;9031;50.974;11.330;2023-04-25T00:25:45;6.93;;;4.27;;
17814;SDS011;9031;50.974;11.330;2023-04-25T00:28:14;4.80;;;4.30;;
17814;SDS011;9031;50.974;11.330;2023-04-25T00:30:40;5.03;;;4.30;;
17814;SDS011;9031;50.974;11.330;2023-04-25T00:33:06;5.77;;;4.37;;
17814;SDS011;9031;50.974;11.330;2023-04-25T00:35:32;5.70;;;3.80;;
17814;SDS011;9031;50.974;11.330;2023-04-25T00:37:58;5.70;;;4.23;;
17814;SDS011;9031;50.974;11.330;2023-04-25T00:40:23;6.00;;;4.50;;
17814;SDS011;9031;50.974;11.330;2023-04-25T00:42:49;5.57;;;4.00;;
17814;SDS011;9031;50.974;11.330;2023-04-25T00:45:16;5.43;;;4.40;;
17814;SDS011;9031;50.974;11.330;2023-04-25T00:47:42;6.50;;;3.83;;
17814;SDS011;9031;50.974;11.330;2023-04-25T00:50:08;6.07;;;4.63;;
17814;SDS011;9031;50.974;11.330;2023-04-25T00:52:35;4.83;;;4.20;;
17814;SDS011;9031;50.974;11.330;2023-04-25T00:55:05;7.83;;;4.60;;
17814;SDS011;9031;50.974;11.330;2023-04-25T00:57:31;6.50;;;4.93;;
17814;SDS011;9031;50.974;11.330;2023-04-25T00:59:57;11.07;;;5.00;;
17814;SDS011;9031;50.974;11.330;2023-04-25T01:02:23;7.17;;;4.50;;
17814;SDS011;9031;50.974;11.330;2023-04-25T01:04:50;7.43;;;4.20;;
17814;SDS011;9031;50.974;11.330;2023-04-25T01:07:16;6.40;;;4.93;;
17814;SDS011;9031;50.974;11.330;2023-04-25T01:09:42;5.87;;;4.93;;
17814;SDS011;9031;50.974;11.330;2023-04-25T01:12:07;6.07;;;4.50;;
17814;SDS011;9031;50.974;11.330;2023-04-25T01:14:33;6.53;;;4.07;;
17814;SDS011;9031;50.974;11.330;2023-04-25T01:16:59;7.13;;;4.60;;
17814;SDS011;9031;50.974;11.330;2023-04-25T01:19:24;6.77;;;4.50;;
17814;SDS011;9031;50.974;11.330;2023-04-25T01:21:50;5.37;;;4.50;;
17814;SDS011;9031;50.974;11.330;2023-04-25T01:24:16;6.13;;;4.43;;
17814;SDS011;9031;50.974;11.330;2023-04-25T01:26:42;5.07;;;4.57;;
17814;SDS011;9031;50.974;11.330;2023-04-25T01:29:17;8.07;;;4.57;;
17814;SDS011;9031;50.974;11.330;2023-04-25T01:31:44;5.57;;;4.80;;
17814;SDS011;9031;50.974;11.330;2023-04-25T01:34:10;5.23;;;4.73;;
17814;SDS011;9031;50.974;11.330;2023-04-25T01:36:36;6.20;;;4.40;;
17814;SDS011;9031;50.974;11.330;2023-04-25T01:39:01;7.13;;;4.90;;
17814;SDS011;9031;50.974;11.330;2023-04-25T01:41:27;5.70;;;5.03;;
17814;SDS011;9031;50.974;11.330;2023-04-25T01:43:53;5.60;;;5.00;;
17814;SDS011;9031;50.974;11.330;2023-04-25T01:46:19;6.00;;;5.13;;
17814;SDS011;9031;50.974;11.330;2023-04-25T01:48:44;6.70;;;5.17;;
17814;SDS011;9031;50.974;11.330;2023-04-25T01:51:10;7.27;;;5.03;;
17814;SDS011;9031;50.974;11.330;2023-04-25T01:53:36;8.33;;;5.40;;
17814;SDS011;9031;50.974;11.330;2023-04-25T01:56:02;8.20;;;5.30;;
17814;SDS011;9031;50.974;11.330;2023-04-25T01:58:28;6.17;;;5.43;;
17814;SDS011;9031;50.974;11.330;2023-04-25T02:00:54;5.67;;;5.17;;
17814;SDS011;9031;50.974;11.330;2023-04-25T02:03:19;7.30;;;5.60;;
17814;SDS011;9031;50.974;11.330;2023-04-25T02:05:45;8.33;;;5.50;;
17814;SDS011;9031;50.974;11.330;2023-04-25T02:08:10;8.33;;;5.10;;
17814;SDS011;9031;50.974;11.330;2023-04-25T02:10:36;10.50;;;5.70;;
17814;SDS011;9031;50.974;11.330;2023-04-25T02:13:02;5.47;;;4.83;;
17814;SDS011;9031;50.974;11.330;2023-04-25T02:15:29;5.97;;;5.37;;
17814;SDS011;9031;50.974;11.330;2023-04-25T02:17:54;10.17;;;7.93;;
17814;SDS011;9031;50.974;11.330;2023-04-25T02:20:21;5.77;;;5.17;;
17814;SDS011;9031;50.974;11.330;2023-04-25T02:22:47;7.80;;;5.20;;
17814;SDS011;9031;50.974;11.330;2023-04-25T02:25:13;5.40;;;4.90;;
17814;SDS011;9031;50.974;11.330;2023-04-25T02:27:40;7.23;;;5.37;;
17814;SDS011;9031;50.974;11.330;2023-04-25T02:30:06;9.73;;;5.53;;
17814;SDS011;9031;50.974;11.330;2023-04-25T02:32:32;8.13;;;5.23;;
17814;SDS011;9031;50.974;11.330;2023-04-25T02:34:59;7.30;;;5.67;;
17814;SDS011;9031;50.974;11.330;2023-04-25T02:37:28;9.23;;;5.80;;
17814;SDS011;9031;50.974;11.330;2023-04-25T02:39:54;9.43;;;5.87;;
17814;SDS011;9031;50.974;11.330;2023-04-25T02:42:20;6.53;;;5.47;;
17814;SDS011;9031;50.974;11.330;2023-04-25T02:44:45;7.87;;;6.20;;
17814;SDS011;9031;50.974;11.330;2023-04-25T02:47:11;7.20;;;5.63;;
17814;SDS011;9031;50.974;11.330;2023-04-25T02:49:36;6.70;;;6.00;;
17814;SDS011;9031;50.974;11.330;2023-04-25T02:52:02;6.83;;;5.50;;
17814;SDS011;9031;50.974;11.330;2023-04-25T02:54:27;9.37;;;6.10;;
17814;SDS011;9031;50.974;11.330;2023-04-25T02:56:53;8.80;;;6.07;;
17814;SDS011;9031;50.974;11.330;2023-04-25T02:59:18;7.90;;;6.23;;
17814;SDS011;9031;50.974;11.330;2023-04-25T03:01:44;8.83;;;6.03;;
17814;SDS011;9031;50.974;11.330;2023-04-25T03:04:10;6.00;;;5.40;;
17814;SDS011;9031;50.974;11.330;2023-04-25T03:06:35;7.50;;;5.70;;
17814;SDS011;9031;50.974;11.330;2023-04-25T03:09:01;6.77;;;5.87;;
17814;SDS011;9031;50.974;11.330;2023-04-25T03:11:26;6.67;;;5.43;;
17814;SDS011;9031;50.974;11.330;2023-04-25T03:13:52;10.93;;;5.73;;
17814;SDS011;9031;50.974;11.330;2023-04-25T03:16:17;6.97;;;5.47;;
17814;SDS011;9031;50.974;11.330;2023-04-25T03:18:43;9.50;;;5.77;;
17814;SDS011;9031;50.974;11.330;2023-04-25T03:21:08;6.97;;;6.27;;
17814;SDS011;9031;50.974;11.330;2023-04-25T03:23:34;8.97;;;6.50;;
17814;SDS011;9031;50.974;11.330;2023-04-25T03:26:00;7.87;;;5.53;;
17814;SDS011;9031;50.974;11.330;2023-04-25T03:28:25;6.80;;;6.03;;
17814;SDS011;9031;50.974;11.330;2023-04-25T03:33:41;10.33;;;6.67;;
17814;SDS011;9031;50.974;11.330;2023-04-25T03:36:07;11.37;;;6.37;;
17814;SDS011;9031;50.974;11.330;2023-04-25T03:38:33;6.50;;;5.73;;
17814;SDS011;9031;50.974;11.330;2023-04-25T03:40:58;8.00;;;6.17;;
17814;SDS011;9031;50.974;11.330;2023-04-25T03:43:24;6.43;;;5.83;;
17814;SDS011;9031;50.974;11.330;2023-04-25T03:45:49;8.27;;;6.67;;
17814;SDS011;9031;50.974;11.330;2023-04-25T03:48:15;9.53;;;6.40;;
17814;SDS011;9031;50.974;11.330;2023-04-25T03:50:41;7.60;;;6.77;;
17814;SDS011;9031;50.974;11.330;2023-04-25T03:53:06;8.57;;;6.47;;
17814;SDS011;9031;50.974;11.330;2023-04-25T03:55:32;7.07;;;6.37;;
17814;SDS011;9031;50.974;11.330;2023-04-25T03:57:57;7.73;;;6.63;;
17814;SDS011;9031;50.974;11.330;2023-04-25T04:00:24;7.63;;;6.57;;
17814;SDS011;9031;50.974;11.330;2023-04-25T04:02:49;11.17;;;6.27;;
17814;SDS011;9031;50.974;11.330;2023-04-25T04:05:15;7.20;;;6.27;;
17814;SDS011;9031;50.974;11.330;2023-04-25T04:07:41;8.47;;;6.13;;
17814;SDS011;9031;50.974;11.330;2023-04-25T04:10:07;7.80;;;7.00;;
17814;SDS011;9031;50.974;11.330;2023-04-25T04:12:34;10.27;;;7.33;;
17814;SDS011;9031;50.974;11.330;2023-04-25T04:15:00;7.57;;;6.80;;
17814;SDS011;9031;50.974;11.330;2023-04-25T04:17:28;8.40;;;6.97;;
17814;SDS011;9031;50.974;11.330;2023-04-25T04:19:54;7.50;;;6.77;;
17814;SDS011;9031;50.974;11.330;2023-04-25T04:22:19;8.37;;;6.77;;
17814;SDS011;9031;50.974;11.330;2023-04-25T04:24:45;7.87;;;6.53;;
17814;SDS011;9031;50.974;11.330;2023-04-25T04:27:11;7.50;;;6.20;;
17814;SDS011;9031;50.974;11.330;2023-04-25T04:29:37;9.77;;;6.80;;
17814;SDS011;9031;50.974;11.330;2023-04-25T04:32:03;12.23;;;7.03;;
17814;SDS011;9031;50.974;11.330;2023-04-25T04:34:29;8.40;;;6.20;;
17814;SDS011;9031;50.974;11.330;2023-04-25T04:36:55;8.13;;;6.50;;
17814;SDS011;9031;50.974;11.330;2023-04-25T04:39:21;7.73;;;6.53;;
17814;SDS011;9031;50.974;11.330;2023-04-25T04:41:47;7.27;;;5.90;;
17814;SDS011;9031;50.974;11.330;2023-04-25T04:44:13;8.27;;;6.50;;
17814;SDS011;9031;50.974;11.330;2023-04-25T04:46:39;9.07;;;5.63;;
17814;SDS011;9031;50.974;11.330;2023-04-25T04:49:07;7.43;;;5.93;;
17814;SDS011;9031;50.974;11.330;2023-04-25T04:51:33;7.37;;;5.67;;
17814;SDS011;9031;50.974;11.330;2023-04-25T04:53:59;6.30;;;5.00;;
17814;SDS011;9031;50.974;11.330;2023-04-25T04:56:27;7.10;;;5.37;;
17814;SDS011;9031;50.974;11.330;2023-04-25T04:58:54;8.70;;;5.50;;
17814;SDS011;9031;50.974;11.330;2023-04-25T05:01:20;6.50;;;5.77;;
17814;SDS011;9031;50.974;11.330;2023-04-25T05:03:45;8.43;;;5.63;;
17814;SDS011;9031;50.974;11.330;2023-04-25T05:06:11;6.90;;;5.27;;
17814;SDS011;9031;50.974;11.330;2023-04-25T05:08:36;7.93;;;5.50;;
17814;SDS011;9031;50.974;11.330;2023-04-25T05:11:02;7.50;;;5.17;;
17814;SDS011;9031;50.974;11.330;2023-04-25T05:13:27;6.13;;;5.00;;
17814;SDS011;9031;50.974;11.330;2023-04-25T05:15:53;7.90;;;5.23;;
17814;SDS011;9031;50.974;11.330;2023-04-25T05:18:18;6.37;;;5.37;;
17814;SDS011;9031;50.974;11.330;2023-04-25T05:20:44;7.87;;;5.63;;
17814;SDS011;9031;50.974;11.330;2023-04-25T05:23:10;7.63;;;5.70;;
17814;SDS011;9031;50.974;11.330;2023-04-25T05:25:35;6.63;;;5.73;;
17814;SDS011;9031;50.974;11.330;2023-04-25T05:28:01;7.13;;;5.50;;
17814;SDS011;9031;50.974;11.330;2023-04-25T05:30:26;7.23;;;5.40;;
17814;SDS011;9031;50.974;11.330;2023-04-25T05:32:52;6.97;;;5.07;;
17814;SDS011;9031;50.974;11.330;2023-04-25T05:35:17;7.13;;;5.63;;
17814;SDS011;9031;50.974;11.330;2023-04-25T05:37:43;5.90;;;5.37;;
17814;SDS011;9031;50.974;11.330;2023-04-25T05:40:08;8.83;;;5.00;;
17814;SDS011;9031;50.974;11.330;2023-04-25T05:42:34;7.87;;;5.83;;
17814;SDS011;9031;50.974;11.330;2023-04-25T05:45:00;7.53;;;5.30;;
17814;SDS011;9031;50.974;11.330;2023-04-25T05:47:25;7.83;;;5.50;;
17814;SDS011;9031;50.974;11.330;2023-04-25T05:49:51;6.30;;;5.27;;
17814;SDS011;9031;50.974;11.330;2023-04-25T05:52:17;7.73;;;5.30;;
17814;SDS011;9031;50.974;11.330;2023-04-25T05:54:42;11.37;;;5.63;;
17814;SDS011;9031;50.974;11.330;2023-04-25T05:57:08;8.27;;;5.00;;
17814;SDS011;9031;50.974;11.330;2023-04-25T05:59:33;6.40;;;5.43;;
17814;SDS011;9031;50.974;11.330;2023-04-25T06:01:59;8.63;;;4.73;;
17814;SDS011;9031;50.974;11.330;2023-04-25T06:04:25;8.63;;;4.87;;
17814;SDS011;9031;50.974;11.330;2023-04-25T06:06:51;7.63;;;4.50;;
17814;SDS011;9031;50.974;11.330;2023-04-25T06:09:16;5.90;;;4.33;;
17814;SDS011;9031;50.974;11.330;2023-04-25T06:11:42;7.17;;;4.40;;
17814;SDS011;9031;50.974;11.330;2023-04-25T06:14:07;9.10;;;4.40;;
17814;SDS011;9031;50.974;11.330;2023-04-25T06:16:33;6.20;;;4.10;;
17814;SDS011;9031;50.974;11.330;2023-04-25T06:18:58;7.47;;;4.27;;
17814;SDS011;9031;50.974;11.330;2023-04-25T06:21:24;7.17;;;4.50;;
17814;SDS011;9031;50.974;11.330;2023-04-25T06:23:49;6.63;;;4.57;;
17814;SDS011;9031;50.974;11.330;2023-04-25T06:26:15;6.90;;;3.90;;
17814;SDS011;9031;50.974;11.330;2023-04-25T06:28:40;7.20;;;4.13;;
17814;SDS011;9031;50.974;11.330;2023-04-25T06:31:06;7.23;;;4.07;;
17814;SDS011;9031;50.974;11.330;2023-04-25T06:33:31;8.00;;;4.20;;
17814;SDS011;9031;50.974;11.330;2023-04-25T06:35:57;5.40;;;4.37;;
17814;SDS011;9031;50.974;11.330;2023-04-25T06:38:22;5.47;;;4.17;;
17814;SDS011;9031;50.974;11.330;2023-04-25T06:40:48;6.53;;;4.07;;
17814;SDS011;9031;50.974;11.330;2023-04-25T06:43:13;6.70;;;4.13;;
17814;SDS011;9031;50.974;11.330;2023-04-25T06:45:39;10.20;;;4.27;;
17814;SDS011;9031;50.974;11.330;2023-04-25T06:48:04;6.07;;;3.90;;
17814;SDS011;9031;50.974;11.330;2023-04-25T06:50:30;6.73;;;3.90;;
17814;SDS011;9031;50.974;11.330;2023-04-25T06:52:55;4.83;;;3.87;;
17814;SDS011;9031;50.974;11.330;2023-04-25T06:55:21;5.73;;;3.87;;
17814;SDS011;9031;50.974;11.330;2023-04-25T06:57:46;6.73;;;4.03;;
17814;SDS011;9031;50.974;11.330;2023-04-25T07:00:12;4.07;;;3.43;;
17814;SDS011;9031;50.974;11.330;2023-04-25T07:02:38;7.50;;;3.90;;
17814;SDS011;9031;50.974;11.330;2023-04-25T07:05:03;7.73;;;4.30;;
17814;SDS011;9031;50.974;11.330;2023-04-25T07:07:30;6.80;;;4.03;;
17814;SDS011;9031;50.974;11.330;2023-04-25T07:09:56;7.00;;;3.57;;
17814;SDS011;9031;50.974;11.330;2023-04-25T07:12:21;5.90;;;3.60;;
17814;SDS011;9031;50.974;11.330;2023-04-25T07:14:47;4.47;;;4.07;;
17814;SDS011;9031;50.974;11.330;2023-04-25T07:17:12;8.47;;;5.00;;
17814;SDS011;9031;50.974;11.330;2023-04-25T07:19:38;4.77;;;4.27;;
17814;SDS011;9031;50.974;11.330;2023-04-25T07:22:04;6.50;;;4.10;;
17814;SDS011;9031;50.974;11.330;2023-04-25T07:24:30;4.03;;;3.63;;
17814;SDS011;9031;50.974;11.330;2023-04-25T07:26:56;4.13;;;2.93;;
17814;SDS011;9031;50.974;11.330;2023-04-25T07:29:22;3.67;;;2.77;;
17814;SDS011;9031;50.974;11.330;2023-04-25T07:31:48;3.87;;;3.13;;
17814;SDS011;9031;50.974;11.330;2023-04-25T07:34:14;4.50;;;3.10;;
17814;SDS011;9031;50.974;11.330;2023-04-25T07:36:40;4.67;;;2.90;;
17814;SDS011;9031;50.974;11.330;2023-04-25T07:39:06;4.80;;;3.50;;
17814;SDS011;9031;50.974;11.330;2023-04-25T07:41:31;3.63;;;3.10;;
17814;SDS011;9031;50.974;11.330;2023-04-25T07:43:57;4.17;;;3.03;;
17814;SDS011;9031;50.974;11.330;2023-04-25T07:46:23;6.67;;;3.47;;
17814;SDS011;9031;50.974;11.330;2023-04-25T07:48:49;3.43;;;3.13;;
17814;SDS011;9031;50.974;11.330;2023-04-25T07:51:14;4.20;;;3.27;;
17814;SDS011;9031;50.974;11.330;2023-04-25T07:53:40;3.97;;;3.10;;
17814;SDS011;9031;50.974;11.330;2023-04-25T07:56:05;3.50;;;3.00;;
17814;SDS011;9031;50.974;11.330;2023-04-25T07:58:31;4.63;;;3.23;;
17814;SDS011;9031;50.974;11.330;2023-04-25T08:00:57;5.87;;;3.27;;
17814;SDS011;9031;50.974;11.330;2023-04-25T08:03:22;4.47;;;3.23;;
17814;SDS011;9031;50.974;11.330;2023-04-25T08:05:48;3.90;;;3.43;;
17814;SDS011;9031;50.974;11.330;2023-04-25T08:08:13;5.47;;;3.50;;
17814;SDS011;9031;50.974;11.330;2023-04-25T08:10:39;5.33;;;3.27;;
17814;SDS011;9031;50.974;11.330;2023-04-25T08:13:04;3.37;;;3.00;;
17814;SDS011;9031;50.974;11.330;2023-04-25T08:15:29;5.77;;;3.57;;
17814;SDS011;9031;50.974;11.330;2023-04-25T08:17:55;6.07;;;3.30;;
17814;SDS011;9031;50.974;11.330;2023-04-25T08:20:20;5.43;;;3.67;;
17814;SDS011;9031;50.974;11.330;2023-04-25T08:22:46;5.33;;;3.27;;
17814;SDS011;9031;50.974;11.330;2023-04-25T08:25:13;4.77;;;3.57;;
17814;SDS011;9031;50.974;11.330;2023-04-25T08:27:39;4.30;;;3.57;;
17814;SDS011;9031;50.974;11.330;2023-04-25T08:30:05;4.53;;;3.33;;
17814;SDS011;9031;50.974;11.330;2023-04-25T08:32:31;3.77;;;2.90;;
17814;SDS011;9031;50.974;11.330;2023-04-25T08:34:56;6.23;;;4.00;;
17814;SDS011;9031;50.974;11.330;2023-04-25T08:37:22;7.03;;;3.23;;
17814;SDS011;9031;50.974;11.330;2023-04-25T08:39:47;7.23;;;3.87;;
17814;SDS011;9031;50.974;11.330;2023-04-25T08:42:18;6.27;;;4.00;;
17814;SDS011;9031;50.974;11.330;2023-04-25T08:44:45;4.83;;;3.97;;
17814;SDS011;9031;50.974;11.330;2023-04-25T08:47:12;5.10;;;4.13;;
17814;SDS011;9031;50.974;11.330;2023-04-25T08:49:38;6.77;;;4.13;;
17814;SDS011;9031;50.974;11.330;2023-04-25T08:52:09;6.57;;;4.07;;
17814;SDS011;9031;50.974;11.330;2023-04-25T08:54:36;5.97;;;3.90;;
17814;SDS011;9031;50.974;11.330;2023-04-25T08:57:05;5.37;;;4.40;;
17814;SDS011;9031;50.974;11.330;2023-04-25T08:59:32;8.90;;;4.90;;
17814;SDS011;9031;50.974;11.330;2023-04-25T09:01:57;20.40;;;14.17;;
17814;SDS011;9031;50.974;11.330;2023-04-25T09:04:23;9.30;;;5.30;;
17814;SDS011;9031;50.974;11.330;2023-04-25T09:06:48;7.30;;;4.40;;
17814;SDS011;9031;50.974;11.330;2023-04-25T09:09:14;9.03;;;4.80;;
17814;SDS011;9031;50.974;11.330;2023-04-25T09:11:39;4.97;;;4.47;;
17814;SDS011;9031;50.974;11.330;2023-04-25T09:14:15;6.10;;;3.67;;
17814;SDS011;9031;50.974;11.330;2023-04-25T09:19:33;3.70;;;3.03;;
17814;SDS011;9031;50.974;11.330;2023-04-25T09:22:02;4.17;;;3.33;;
17814;SDS011;9031;50.974;11.330;2023-04-25T09:27:08;5.13;;;4.40;;
17814;SDS011;9031;50.974;11.330;2023-04-25T09:29:37;4.60;;;3.67;;
17814;SDS011;9031;50.974;11.330;2023-04-25T09:32:11;5.10;;;3.40;;
17814;SDS011;9031;50.974;11.330;2023-04-25T09:34:41;5.83;;;3.20;;
17814;SDS011;9031;50.974;11.330;2023-04-25T09:37:09;4.30;;;3.60;;
17814;SDS011;9031;50.974;11.330;2023-04-25T09:39:36;5.37;;;3.80;;
17814;SDS011;9031;50.974;11.330;2023-04-25T09:42:02;3.40;;;3.10;;
17814;SDS011;9031;50.974;11.330;2023-04-25T09:44:29;4.60;;;3.87;;
17814;SDS011;9031;50.974;11.330;2023-04-25T09:46:54;6.23;;;4.10;;
17814;SDS011;9031;50.974;11.330;2023-04-25T09:49:20;15.23;;;8.93;;
17814;SDS011;9031;50.974;11.330;2023-04-25T09:51:55;6.30;;;4.30;;
17814;SDS011;9031;50.974;11.330;2023-04-25T09:54:22;4.50;;;2.93;;
17814;SDS011;9031;50.974;11.330;2023-04-25T09:56:48;4.40;;;2.70;;
17814;SDS011;9031;50.974;11.330;2023-04-25T09:59:18;12.17;;;6.80;;
17814;SDS011;9031;50.974;11.330;2023-04-25T10:01:46;5.53;;;3.30;;
17814;SDS011;9031;50.974;11.330;2023-04-25T10:04:15;6.70;;;2.87;;
17814;SDS011;9031;50.974;11.330;2023-04-25T10:06:48;7.03;;;2.63;;
17814;SDS011;9031;50.974;11.330;2023-04-25T10:09:15;11.70;;;5.07;;
17814;SDS011;9031;50.974;11.330;2023-04-25T10:11:42;9.40;;;3.60;;
17814;SDS011;9031;50.974;11.330;2023-04-25T10:14:12;9.37;;;2.97;;
17814;SDS011;9031;50.974;11.330;2023-04-25T10:16:39;11.40;;;3.67;;
17814;SDS011;9031;50.974;11.330;2023-04-25T10:19:06;7.07;;;3.10;;
17814;SDS011;9031;50.974;11.330;2023-04-25T10:21:32;8.07;;;3.10;;
17814;SDS011;9031;50.974;11.330;2023-04-25T10:23:59;10.40;;;3.00;;
17814;SDS011;9031;50.974;11.330;2023-04-25T10:26:25;12.77;;;3.70;;
17814;SDS011;9031;50.974;11.330;2023-04-25T10:28:58;10.23;;;3.37;;
17814;SDS011;9031;50.974;11.330;2023-04-25T10:31:29;5.07;;;2.23;;
17814;SDS011;9031;50.974;11.330;2023-04-25T10:33:55;5.57;;;2.70;;
17814;SDS011;9031;50.974;11.330;2023-04-25T10:36:22;8.37;;;2.67;;
17814;SDS011;9031;50.974;11.330;2023-04-25T10:38:48;7.70;;;2.50;;
17814;SDS011;9031;50.974;11.330;2023-04-25T10:41:18;8.23;;;2.80;;
17814;SDS011;9031;50.974;11.330;2023-04-25T10:43:45;4.67;;;2.00;;
17814;SDS011;9031;50.974;11.330;2023-04-25T10:46:18;6.43;;;2.07;;
17814;SDS011;9031;50.974;11.330;2023-04-25T10:48:52;5.73;;;2.60;;
17814;SDS011;9031;50.974;11.330;2023-04-25T10:51:26;6.90;;;2.30;;
17814;SDS011;9031;50.974;11.330;2023-04-25T10:56:38;8.37;;;2.70;;
17814;SDS011;9031;50.974;11.330;2023-04-25T11:01:47;6.87;;;2.60;;
17814;SDS011;9031;50.974;11.330;2023-04-25T11:04:28;5.73;;;2.77;;
17814;SDS011;9031;50.974;11.330;2023-04-25T11:09:30;6.27;;;2.60;;
17814;SDS011;9031;50.974;11.330;2023-04-25T11:11:57;12.07;;;3.17;;
17814;SDS011;9031;50.974;11.330;2023-04-25T11:14:23;11.40;;;2.87;;
17814;SDS011;9031;50.974;11.330;2023-04-25T11:16:53;9.13;;;2.43;;
17814;SDS011;9031;50.974;11.330;2023-04-25T11:19:20;7.30;;;2.27;;
17814;SDS011;9031;50.974;11.330;2023-04-25T11:21:46;5.83;;;2.77;;
17814;SDS011;9031;50.974;11.330;2023-04-25T11:24:12;8.77;;;2.73;;
17814;SDS011;9031;50.974;11.330;2023-04-25T11:26:37;6.53;;;2.57;;
17814;SDS011;9031;50.974;11.330;2023-04-25T11:29:03;5.23;;;2.57;;
17814;SDS011;9031;50.974;11.330;2023-04-25T11:31:28;6.10;;;2.40;;
17814;SDS011;9031;50.974;11.330;2023-04-25T11:33:56;5.27;;;2.43;;
17814;SDS011;9031;50.974;11.330;2023-04-25T11:36:22;7.37;;;2.63;;
17814;SDS011;9031;50.974;11.330;2023-04-25T11:38:49;8.50;;;2.40;;
17814;SDS011;9031;50.974;11.330;2023-04-25T11:41:15;5.67;;;2.87;;
17814;SDS011;9031;50.974;11.330;2023-04-25T11:43:42;7.30;;;2.67;;
17814;SDS011;9031;50.974;11.330;2023-04-25T11:46:08;4.27;;;1.93;;
17814;SDS011;9031;50.974;11.330;2023-04-25T11:48:40;6.03;;;1.80;;
17814;SDS011;9031;50.974;11.330;2023-04-25T11:51:07;5.70;;;2.30;;
17814;SDS011;9031;50.974;11.330;2023-04-25T11:53:32;5.80;;;2.43;;
17814;SDS011;9031;50.974;11.330;2023-04-25T11:55:59;4.20;;;2.07;;
17814;SDS011;9031;50.974;11.330;2023-04-25T11:58:25;3.93;;;2.27;;
17814;SDS011;9031;50.974;11.330;2023-04-25T12:00:51;4.33;;;1.70;;
17814;SDS011;9031;50.974;11.330;2023-04-25T12:03:17;4.77;;;1.93;;
17814;SDS011;9031;50.974;11.330;2023-04-25T12:05:44;7.27;;;1.83;;
17814;SDS011;9031;50.974;11.330;2023-04-25T12:08:11;8.10;;;2.07;;
17814;SDS011;9031;50.974;11.330;2023-04-25T12:10:38;5.63;;;2.27;;
17814;SDS011;9031;50.974;11.330;2023-04-25T12:13:21;9.13;;;4.60;;
17814;SDS011;9031;50.974;11.330;2023-04-25T12:15:51;9.77;;;2.47;;
17814;SDS011;9031;50.974;11.330;2023-04-25T12:18:19;8.40;;;2.57;;
17814;SDS011;9031;50.974;11.330;2023-04-25T12:20:46;6.57;;;2.63;;
17814;SDS011;9031;50.974;11.330;2023-04-25T12:23:11;7.83;;;2.63;;
17814;SDS011;9031;50.974;11.330;2023-04-25T12:25:38;6.20;;;2.50;;
17814;SDS011;9031;50.974;11.330;2023-04-25T12:28:09;8.97;;;2.57;;
17814;SDS011;9031;50.974;11.330;2023-04-25T12:30:54;7.60;;;3.00;;
17814;SDS011;9031;50.974;11.330;2023-04-25T12:33:21;7.00;;;3.00;;
17814;SDS011;9031;50.974;11.330;2023-04-25T12:35:47;6.63;;;2.57;;
17814;SDS011;9031;50.974;11.330;2023-04-25T12:38:22;10.40;;;3.23;;
17814;SDS011;9031;50.974;11.330;2023-04-25T12:40:48;3.60;;;1.70;;
17814;SDS011;9031;50.974;11.330;2023-04-25T12:43:14;4.70;;;1.93;;
17814;SDS011;9031;50.974;11.330;2023-04-25T12:45:40;5.07;;;1.80;;
17814;SDS011;9031;50.974;11.330;2023-04-25T12:48:05;7.53;;;2.17;;
17814;SDS011;9031;50.974;11.330;2023-04-25T12:50:31;5.33;;;1.80;;
17814;SDS011;9031;50.974;11.330;2023-04-25T12:52:56;5.53;;;2.20;;
17814;SDS011;9031;50.974;11.330;2023-04-25T12:55:22;5.33;;;1.87;;
17814;SDS011;9031;50.974;11.330;2023-04-25T12:57:47;10.20;;;4.87;;
17814;SDS011;9031;50.974;11.330;2023-04-25T13:00:13;7.10;;;2.70;;
17814;SDS011;9031;50.974;11.330;2023-04-25T13:02:40;6.43;;;2.20;;
17814;SDS011;9031;50.974;11.330;2023-04-25T13:05:05;4.03;;;1.80;;
17814;SDS011;9031;50.974;11.330;2023-04-25T13:07:31;3.53;;;1.83;;
17814;SDS011;9031;50.974;11.330;2023-04-25T13:09:57;4.93;;;1.97;;
17814;SDS011;9031;50.974;11.330;2023-04-25T13:12:22;4.47;;;1.87;;
17814;SDS011;9031;50.974;11.330;2023-04-25T13:14:47;5.10;;;2.53;;
17814;SDS011;9031;50.974;11.330;2023-04-25T13:17:13;5.80;;;1.73;;
17814;SDS011;9031;50.974;11.330;2023-04-25T13:19:38;3.77;;;1.57;;
17814;SDS011;9031;50.974;11.330;2023-04-25T13:22:04;7.10;;;2.20;;
17814;SDS011;9031;50.974;11.330;2023-04-25T13:24:29;5.90;;;1.80;;
17814;SDS011;9031;50.974;11.330;2023-04-25T13:26:55;6.20;;;1.67;;
17814;SDS011;9031;50.974;11.330;2023-04-25T13:29:21;3.83;;;1.63;;
17814;SDS011;9031;50.974;11.330;2023-04-25T13:31:46;3.77;;;1.40;;
17814;SDS011;9031;50.974;11.330;2023-04-25T13:34:11;2.60;;;1.60;;
17814;SDS011;9031;50.974;11.330;2023-04-25T13:36:37;1.90;;;1.50;;
17814;SDS011;9031;50.974;11.330;2023-04-25T13:39:03;6.07;;;1.80;;
17814;SDS011;9031;50.974;11.330;2023-04-25T13:41:29;3.10;;;1.80;;
17814;SDS011;9031;50.974;11.330;2023-04-25T13:43:55;5.87;;;2.20;;
17814;SDS011;9031;50.974;11.330;2023-04-25T13:46:20;4.17;;;1.70;;
17814;SDS011;9031;50.974;11.330;2023-04-25T13:48:46;5.07;;;1.50;;
17814;SDS011;9031;50.974;11.330;2023-04-25T13:51:13;2.53;;;1.20;;
17814;SDS011;9031;50.974;11.330;2023-04-25T13:53:40;4.27;;;1.50;;
17814;SDS011;9031;50.974;11.330;2023-04-25T13:56:06;3.73;;;1.50;;
17814;SDS011;9031;50.974;11.330;2023-04-25T13:58:31;3.60;;;1.30;;
17814;SDS011;9031;50.974;11.330;2023-04-25T14:00:57;5.43;;;1.40;;
17814;SDS011;9031;50.974;11.330;2023-04-25T14:03:23;4.67;;;1.30;;
17814;SDS011;9031;50.974;11.330;2023-04-25T14:05:48;4.33;;;1.70;;
17814;SDS011;9031;50.974;11.330;2023-04-25T14:08:14;5.10;;;1.53;;
17814;SDS011;9031;50.974;11.330;2023-04-25T14:10:39;3.20;;;1.00;;
17814;SDS011;9031;50.974;11.330;2023-04-25T14:13:05;5.33;;;1.53;;
17814;SDS011;9031;50.974;11.330;2023-04-25T14:15:32;4.67;;;1.50;;
17814;SDS011;9031;50.974;11.330;2023-04-25T14:17:57;5.80;;;1.53;;
17814;SDS011;9031;50.974;11.330;2023-04-25T14:20:23;5.10;;;1.40;;
17814;SDS011;9031;50.974;11.330;2023-04-25T14:22:49;3.17;;;1.33;;
17814;SDS011;9031;50.974;11.330;2023-04-25T14:25:15;3.17;;;1.57;;
17814;SDS011;9031;50.974;11.330;2023-04-25T14:27:40;5.67;;;1.53;;
17814;SDS011;9031;50.974;11.330;2023-04-25T14:30:06;5.60;;;1.47;;
17814;SDS011;9031;50.974;11.330;2023-04-25T14:32:34;2.67;;;1.17;;
17814;SDS011;9031;50.974;11.330;2023-04-25T14:34:59;3.63;;;1.07;;
17814;SDS011;9031;50.974;11.330;2023-04-25T14:37:25;4.70;;;1.30;;
17814;SDS011;9031;50.974;11.330;2023-04-25T14:39:50;2.40;;;1.30;;
17814;SDS011;9031;50.974;11.330;2023-04-25T14:42:16;3.97;;;1.20;;
17814;SDS011;9031;50.974;11.330;2023-04-25T14:44:41;4.87;;;1.63;;
17814;SDS011;9031;50.974;11.330;2023-04-25T14:47:07;3.43;;;1.20;;
17814;SDS011;9031;50.974;11.330;2023-04-25T14:49:32;4.20;;;1.60;;
17814;SDS011;9031;50.974;11.330;2023-04-25T14:51:58;3.30;;;1.50;;
17814;SDS011;9031;50.974;11.330;2023-04-25T14:54:23;4.60;;;1.63;;
17814;SDS011;9031;50.974;11.330;2023-04-25T14:56:49;3.70;;;1.60;;
17814;SDS011;9031;50.974;11.330;2023-04-25T14:59:15;5.17;;;2.03;;